createdAt,value
2023-01-23T00:00:15.700Z,18.75
2023-01-23T00:02:43.481Z,19.27
2023-01-23T00:05:11.788Z,19.13
2023-01-23T00:07:39.460Z,18.63
2023-01-23T00:10:10.225Z,18.83
2023-01-23T00:12:37.875Z,18.67
2023-01-23T00:15:06.805Z,18.67
2023-01-23T00:17:34.506Z,18.13
2023-01-23T00:20:02.307Z,18.25
2023-01-23T00:22:29.961Z,17.90
2023-01-23T00:24:57.614Z,18.52
2023-01-23T00:27:26.820Z,18.30
2023-01-23T00:29:54.714Z,17.48
2023-01-23T00:32:22.640Z,18.85
2023-01-23T00:34:50.515Z,17.95
2023-01-23T00:37:18.427Z,18.10
2023-01-23T00:39:46.466Z,18.48
2023-01-23T00:42:14.151Z,17.88
2023-01-23T00:44:43.311Z,18.30
2023-01-23T00:47:10.978Z,17.77
2023-01-23T00:49:38.682Z,17.73
2023-01-23T00:52:06.400Z,18.05
2023-01-23T00:54:34.054Z,18.50
2023-01-23T00:57:01.804Z,18.55
2023-01-23T00:59:29.654Z,17.88
2023-01-23T01:01:58.963Z,17.45
2023-01-23T01:04:26.803Z,18.13
2023-01-23T01:06:54.481Z,17.23
2023-01-23T01:09:22.275Z,18.00
2023-01-23T01:11:49.985Z,16.52
2023-01-23T01:14:17.777Z,16.88
2023-01-23T01:16:46.612Z,16.50
2023-01-23T01:19:16.758Z,17.23
2023-01-23T01:21:44.482Z,17.45
2023-01-23T01:24:12.300Z,17.20
2023-01-23T01:26:40.221Z,16.63
2023-01-23T01:29:07.896Z,17.30
2023-01-23T01:31:35.687Z,17.00
2023-01-23T01:34:03.529Z,15.93
2023-01-23T01:36:32.767Z,16.90
2023-01-23T01:39:00.532Z,17.15
2023-01-23T01:41:28.313Z,17.20
2023-01-23T01:43:57.365Z,17.15
2023-01-23T01:46:26.236Z,17.50
2023-01-23T01:49:03.560Z,16.52
2023-01-23T01:51:34.570Z,17.80
2023-01-23T01:54:07.615Z,16.58
2023-01-23T01:56:38.867Z,17.57
2023-01-23T01:59:07.150Z,17.13
2023-01-23T02:01:35.721Z,16.42
2023-01-23T02:04:03.566Z,15.67
2023-01-23T02:06:32.709Z,16.25
2023-01-23T02:09:04.901Z,15.60
2023-01-23T02:11:32.844Z,16.75
2023-01-23T02:14:00.499Z,15.65
2023-01-23T02:16:30.305Z,16.65
2023-01-23T02:19:00.544Z,15.90
2023-01-23T02:21:29.089Z,16.33
2023-01-23T02:24:08.184Z,16.05
2023-01-23T02:26:40.357Z,15.00
2023-01-23T02:29:08.178Z,15.73
2023-01-23T02:31:37.410Z,16.35
2023-01-23T02:34:06.062Z,16.13
2023-01-23T02:36:36.037Z,16.38
2023-01-23T02:39:09.010Z,16.42
2023-01-23T02:41:40.806Z,15.52
2023-01-23T02:44:13.604Z,15.35
2023-01-23T02:46:41.599Z,16.05
2023-01-23T02:49:09.370Z,16.85
2023-01-23T02:51:37.222Z,16.13
2023-01-23T02:54:05.545Z,16.40
2023-01-23T02:56:34.026Z,16.42
2023-01-23T02:59:20.871Z,16.45
2023-01-23T03:01:48.669Z,15.45
2023-01-23T03:04:16.389Z,17.00
2023-01-23T03:06:44.102Z,16.85
2023-01-23T03:09:14.117Z,16.42
2023-01-23T03:11:43.685Z,16.52
2023-01-23T03:14:14.611Z,16.45
2023-01-23T03:16:43.075Z,17.60
2023-01-23T03:19:11.614Z,18.10
2023-01-23T03:21:41.375Z,18.20
2023-01-23T03:24:10.136Z,18.67
2023-01-23T03:26:40.002Z,17.55
2023-01-23T03:29:25.341Z,17.80
2023-01-23T03:31:54.681Z,17.73
2023-01-23T03:34:22.973Z,16.02
2023-01-23T03:36:50.641Z,16.67
2023-01-23T03:39:35.865Z,16.90
2023-01-23T03:42:03.594Z,16.67
2023-01-23T03:44:31.368Z,16.13
2023-01-23T03:47:00.657Z,15.98
2023-01-23T03:49:28.473Z,16.70
2023-01-23T03:51:56.228Z,16.52
2023-01-23T03:54:24.120Z,16.90
2023-01-23T03:56:51.875Z,16.38
2023-01-23T03:59:19.645Z,16.87
2023-01-23T04:01:48.205Z,16.67
2023-01-23T04:04:17.372Z,17.42
2023-01-23T04:06:45.019Z,16.30
2023-01-23T04:09:13.055Z,16.70
2023-01-23T04:11:40.800Z,16.75
2023-01-23T04:14:09.718Z,16.98
2023-01-23T04:16:37.540Z,16.42
2023-01-23T04:19:05.264Z,17.35
2023-01-23T04:21:34.300Z,16.40
2023-01-23T04:24:02.071Z,17.92
2023-01-23T04:26:29.759Z,16.15
2023-01-23T04:28:57.479Z,17.23
2023-01-23T04:31:25.282Z,16.55
2023-01-23T04:33:53.052Z,17.30
2023-01-23T04:36:20.766Z,16.95
2023-01-23T04:38:49.919Z,16.42
2023-01-23T04:41:20.979Z,16.80
2023-01-23T04:43:48.725Z,16.80
2023-01-23T04:46:16.528Z,16.30
2023-01-23T04:48:44.215Z,16.52
2023-01-23T04:51:11.924Z,16.60
2023-01-23T04:53:39.692Z,17.27
2023-01-23T04:56:09.055Z,16.55
2023-01-23T04:58:36.742Z,16.98
2023-01-23T05:01:05.810Z,17.20
2023-01-23T05:03:34.826Z,16.85
2023-01-23T05:06:02.632Z,16.08
2023-01-23T05:08:30.390Z,17.70
2023-01-23T05:10:58.048Z,16.88
2023-01-23T05:13:27.081Z,17.23
2023-01-23T05:15:54.942Z,16.70
2023-01-23T05:18:24.869Z,16.27
2023-01-23T05:20:52.505Z,16.33
2023-01-23T05:23:20.416Z,17.17
2023-01-23T05:25:48.195Z,16.73
2023-01-23T05:28:15.944Z,16.98
2023-01-23T05:30:45.185Z,16.67
2023-01-23T05:33:13.127Z,16.17
2023-01-23T05:35:41.135Z,16.60
2023-01-23T05:38:08.913Z,17.13
2023-01-23T05:40:36.645Z,18.30
2023-01-23T05:43:04.314Z,17.10
2023-01-23T05:45:32.030Z,17.80
2023-01-23T05:48:01.158Z,17.85
2023-01-23T05:50:28.855Z,18.03
2023-01-23T05:52:56.551Z,16.40
2023-01-23T05:55:24.702Z,17.33
2023-01-23T05:57:52.449Z,17.30
2023-01-23T06:00:21.072Z,16.88
2023-01-23T06:02:49.074Z,17.43
2023-01-23T06:05:18.190Z,17.70
2023-01-23T06:07:45.913Z,17.25
2023-01-23T06:10:13.678Z,18.70
2023-01-23T06:12:41.371Z,18.58
2023-01-23T06:15:09.708Z,18.52
2023-01-23T06:17:37.517Z,17.88
2023-01-23T06:20:05.830Z,17.45
2023-01-23T06:22:35.034Z,18.38
2023-01-23T06:25:02.719Z,18.38
2023-01-23T06:27:30.398Z,16.95
2023-01-23T06:29:58.137Z,17.80
2023-01-23T06:32:25.882Z,18.85
2023-01-23T06:34:53.588Z,17.63
2023-01-23T06:37:21.369Z,17.45
2023-01-23T06:39:50.398Z,18.90
2023-01-23T06:42:18.125Z,18.73
2023-01-23T06:44:45.862Z,18.15
2023-01-23T06:47:13.550Z,18.10
2023-01-23T06:49:41.240Z,19.23
2023-01-23T06:52:09.047Z,17.42
2023-01-23T06:54:36.772Z,18.55
2023-01-23T06:57:06.059Z,18.20
2023-01-23T06:59:33.913Z,19.33
2023-01-23T07:02:01.683Z,18.85
2023-01-23T07:04:29.402Z,18.45
2023-01-23T07:06:57.233Z,18.20
2023-01-23T07:09:24.925Z,19.08
2023-01-23T07:11:52.685Z,19.08
2023-01-23T07:14:21.835Z,18.58
2023-01-23T07:16:49.623Z,18.10
2023-01-23T07:19:17.346Z,18.80
2023-01-23T07:21:45.108Z,19.20
2023-01-23T07:24:12.862Z,18.23
2023-01-23T07:26:40.610Z,18.10
2023-01-23T07:29:09.173Z,18.27
2023-01-23T07:31:38.566Z,19.17
2023-01-23T07:34:06.337Z,18.27
2023-01-23T07:36:34.105Z,17.95
2023-01-23T07:39:01.808Z,18.75
2023-01-23T07:41:30.570Z,18.60
2023-01-23T07:43:58.225Z,18.95
2023-01-23T07:46:26.915Z,19.42
2023-01-23T07:48:56.248Z,18.23
2023-01-23T07:51:23.951Z,18.92
2023-01-23T07:53:51.765Z,19.20
2023-01-23T07:56:19.864Z,19.67
2023-01-23T07:58:50.702Z,19.63
2023-01-23T08:01:19.289Z,18.33
2023-01-23T08:03:47.156Z,18.80
2023-01-23T08:06:16.376Z,19.13
2023-01-23T08:08:44.178Z,18.80
2023-01-23T08:11:12.609Z,18.67
2023-01-23T08:13:40.584Z,19.05
2023-01-23T08:16:08.924Z,19.63
2023-01-23T08:18:36.612Z,19.23
2023-01-23T08:21:04.691Z,18.98
2023-01-23T08:23:35.180Z,19.25
2023-01-23T08:26:05.431Z,19.25
2023-01-23T08:28:33.586Z,19.33
2023-01-23T08:31:01.693Z,18.98
2023-01-23T08:33:29.494Z,19.27
2023-01-23T08:35:58.517Z,19.75
2023-01-23T08:38:26.414Z,20.30
2023-01-23T08:40:56.272Z,19.85
2023-01-23T08:43:24.092Z,18.92
2023-01-23T08:45:53.899Z,19.33
2023-01-23T08:48:23.343Z,19.42
2023-01-23T08:50:51.296Z,19.48
2023-01-23T08:53:19.054Z,19.27
2023-01-23T08:55:46.771Z,19.65
2023-01-23T08:58:15.955Z,18.48
2023-01-23T09:00:43.732Z,18.27
2023-01-23T09:03:11.643Z,18.80
2023-01-23T09:05:39.330Z,18.58
2023-01-23T09:08:07.100Z,18.53
2023-01-23T09:10:34.896Z,18.35
2023-01-23T09:13:02.617Z,18.42
2023-01-23T09:15:31.718Z,18.38
2023-01-23T09:18:00.100Z,19.35
2023-01-23T09:20:29.083Z,17.85
2023-01-23T09:22:56.890Z,19.10
2023-01-23T09:25:24.675Z,19.40
2023-01-23T09:27:52.369Z,19.20
2023-01-23T09:30:20.373Z,19.02
2023-01-23T09:32:49.652Z,19.33
2023-01-23T09:35:17.487Z,19.33
2023-01-23T09:38:06.730Z,18.67
2023-01-23T09:40:36.998Z,18.87
2023-01-23T09:43:12.767Z,18.50
2023-01-23T09:45:41.747Z,18.07
2023-01-23T09:48:20.843Z,19.30
2023-01-23T09:50:56.300Z,18.38
2023-01-23T09:53:26.844Z,18.92
2023-01-23T09:56:00.635Z,17.43
2023-01-23T09:58:33.238Z,19.05
2023-01-23T10:01:00.970Z,17.60
2023-01-23T10:03:32.245Z,18.92
2023-01-23T10:06:13.789Z,18.88
2023-01-23T10:08:49.458Z,18.43
2023-01-23T10:11:24.164Z,17.15
2023-01-23T10:14:10.558Z,16.75
2023-01-23T10:16:54.458Z,17.13
2023-01-23T10:19:45.401Z,16.92
2023-01-23T10:22:33.579Z,17.15
2023-01-23T10:25:04.928Z,16.15
2023-01-23T10:27:35.319Z,16.67
2023-01-23T10:30:05.827Z,16.42
2023-01-23T10:32:49.404Z,15.88
2023-01-23T10:35:21.063Z,16.05
2023-01-23T10:37:52.669Z,15.75
2023-01-23T10:40:42.191Z,16.10
2023-01-23T10:43:15.423Z,16.27
2023-01-23T10:45:43.737Z,15.52
2023-01-23T10:48:39.475Z,15.52
2023-01-23T10:51:32.309Z,14.80
2023-01-23T10:54:08.843Z,14.52
2023-01-23T10:56:39.201Z,15.38
2023-01-23T10:59:07.843Z,14.68
2023-01-23T11:01:38.757Z,15.35
2023-01-23T11:04:12.846Z,14.43
2023-01-23T11:06:41.901Z,15.57
2023-01-23T11:09:20.374Z,15.52
2023-01-23T11:12:01.346Z,15.00
2023-01-23T11:14:29.317Z,14.20
2023-01-23T11:17:07.344Z,15.05
2023-01-23T11:19:35.017Z,14.43
2023-01-23T11:22:10.874Z,14.90
2023-01-23T11:24:41.408Z,15.43
2023-01-23T11:27:19.454Z,15.47
2023-01-23T11:29:59.776Z,16.00
2023-01-23T11:32:28.708Z,16.80
2023-01-23T11:35:08.635Z,15.70
2023-01-23T11:37:38.755Z,15.70
2023-01-23T11:40:08.637Z,15.80
2023-01-23T11:42:40.159Z,15.83
2023-01-23T11:45:14.731Z,15.68
2023-01-23T11:48:01.698Z,15.73
2023-01-23T11:50:38.973Z,15.57
2023-01-23T11:53:27.997Z,16.00
2023-01-23T11:56:43.920Z,15.73
2023-01-23T11:59:36.266Z,15.65
2023-01-23T12:02:32.948Z,15.02
2023-01-23T12:05:09.337Z,15.35
2023-01-23T12:07:41.303Z,16.15
2023-01-23T12:10:19.598Z,15.70
2023-01-23T12:13:02.571Z,15.57
2023-01-23T12:15:34.745Z,17.67
2023-01-23T12:18:09.181Z,16.40
2023-01-23T12:20:44.345Z,16.60
2023-01-23T12:23:27.416Z,14.40
2023-01-23T12:26:04.498Z,14.10
2023-01-23T12:28:52.384Z,14.93
2023-01-23T12:31:31.903Z,14.63
2023-01-23T12:34:11.283Z,15.63
2023-01-23T12:37:08.667Z,15.40
2023-01-23T12:39:56.967Z,15.43
2023-01-23T12:42:29.932Z,15.70
2023-01-23T12:45:03.475Z,15.18
2023-01-23T12:47:35.613Z,15.73
2023-01-23T12:50:10.066Z,15.57
2023-01-23T12:52:41.030Z,15.10
2023-01-23T12:55:17.804Z,15.37
2023-01-23T12:58:00.105Z,14.40
2023-01-23T13:00:42.018Z,15.02
2023-01-23T13:03:31.269Z,14.10
2023-01-23T13:06:14.897Z,15.68
2023-01-23T13:09:02.612Z,15.77
2023-01-23T13:11:44.889Z,15.27
2023-01-23T13:14:25.605Z,15.40
2023-01-23T13:16:58.942Z,14.85
2023-01-23T13:19:45.238Z,15.80
2023-01-23T13:22:29.115Z,15.32
2023-01-23T13:25:12.550Z,16.52
2023-01-23T13:27:42.635Z,16.30
2023-01-23T13:30:39.015Z,16.05
2023-01-23T13:33:55.272Z,17.25
2023-01-23T13:36:33.257Z,15.90
2023-01-23T13:39:19.742Z,15.82
2023-01-23T13:41:49.091Z,16.27
2023-01-23T13:44:27.141Z,16.40
2023-01-23T14:22:19.719Z,15.75
2023-01-23T14:24:48.445Z,14.50
2023-01-23T14:27:22.007Z,15.63
2023-01-23T14:29:59.367Z,14.90
2023-01-23T14:32:30.398Z,14.70
2023-01-23T14:34:58.168Z,15.27
2023-01-23T14:37:28.471Z,15.48
2023-01-23T14:39:58.198Z,15.10
2023-01-23T14:42:30.279Z,15.87
2023-01-23T14:45:00.849Z,15.38
2023-01-23T14:47:34.335Z,15.57
2023-01-23T14:50:03.077Z,14.85
2023-01-23T14:52:33.978Z,15.35
2023-01-23T14:55:07.822Z,15.85
2023-01-23T14:57:36.749Z,15.73
2023-01-23T15:00:05.481Z,16.45
2023-01-23T15:02:35.510Z,14.98
2023-01-23T15:05:19.799Z,16.17
2023-01-23T15:07:50.438Z,16.10
2023-01-23T15:10:20.314Z,15.83
2023-01-23T15:12:53.760Z,15.65
2023-01-23T15:15:24.850Z,15.95
2023-01-23T15:17:54.123Z,15.95
2023-01-23T15:20:35.460Z,16.08
2023-01-23T15:23:28.344Z,17.15
2023-01-23T15:26:25.753Z,16.98
2023-01-23T15:28:54.823Z,16.87
2023-01-23T15:31:26.399Z,17.17
2023-01-23T15:33:54.656Z,15.82
2023-01-23T15:36:26.717Z,16.55
2023-01-23T15:38:56.457Z,15.07
2023-01-23T15:41:39.149Z,15.55
2023-01-23T15:44:13.672Z,16.65
2023-01-23T15:46:41.443Z,16.20
2023-01-23T15:49:23.643Z,16.98
2023-01-23T15:51:53.198Z,17.53
2023-01-23T15:54:25.450Z,17.23
2023-01-23T15:57:05.515Z,16.52
2023-01-23T15:59:34.735Z,15.82
2023-01-23T16:02:02.547Z,15.43
2023-01-23T16:04:30.319Z,16.50
2023-01-23T16:06:58.571Z,15.95
2023-01-23T16:09:31.646Z,16.43
2023-01-23T16:12:00.436Z,15.73
2023-01-23T16:14:31.045Z,16.15
2023-01-23T16:17:11.487Z,16.80
2023-01-23T16:19:43.968Z,16.02
2023-01-23T16:22:15.068Z,17.15
2023-01-23T16:24:44.186Z,16.67
2023-01-23T16:27:16.974Z,16.40
2023-01-23T16:29:45.303Z,16.97
2023-01-23T16:32:13.408Z,16.48
2023-01-23T16:34:41.207Z,16.45
2023-01-23T16:37:13.198Z,17.13
2023-01-23T16:39:42.137Z,15.70
2023-01-23T16:42:18.829Z,16.77
2023-01-23T16:44:47.001Z,17.45
2023-01-23T16:48:56.849Z,16.67
2023-01-23T16:53:53.403Z,17.13
2023-01-23T16:56:23.100Z,17.20
2023-01-23T16:58:51.268Z,17.27
2023-01-23T17:01:21.577Z,17.08
2023-01-23T17:03:54.859Z,17.92
2023-01-23T17:06:22.624Z,16.80
2023-01-23T17:08:53.414Z,16.75
2023-01-23T17:11:23.024Z,16.08
2023-01-23T17:13:53.842Z,16.60
2023-01-23T17:16:27.385Z,17.92
2023-01-23T17:18:55.849Z,16.88
2023-01-23T17:21:24.694Z,17.40
2023-01-23T17:23:53.789Z,16.35
